createdAt,value
2023-04-02T00:01:38.704Z,13.50
2023-04-02T00:04:09.762Z,11.80
2023-04-02T00:06:40.759Z,8.00
2023-04-02T00:08:51.300Z,7.40
2023-04-02T00:11:03.403Z,19.40
2023-04-02T00:13:27.448Z,14.70
2023-04-02T00:15:39.432Z,15.20
2023-04-02T00:17:49.793Z,19.20
2023-04-02T00:20:06.898Z,13.80
2023-04-02T00:22:22.762Z,14.60
2023-04-02T00:24:32.716Z,20.20
2023-04-02T00:26:46.282Z,28.80
2023-04-02T00:28:56.175Z,18.90
2023-04-02T00:31:06.182Z,13.80
2023-04-02T00:33:21.812Z,4.60
2023-04-02T00:35:33.137Z,15.90
2023-04-02T00:37:43.934Z,18.40
2023-04-02T00:39:57.733Z,12.40
2023-04-02T00:42:08.823Z,16.60
2023-04-02T00:44:22.503Z,10.10
2023-04-02T00:46:47.529Z,11.80
2023-04-02T00:49:03.284Z,11.20
2023-04-02T00:51:21.995Z,21.80
2023-04-02T00:53:33.573Z,8.90
2023-04-02T00:55:44.926Z,12.20
2023-04-02T00:57:57.023Z,15.30
2023-04-02T01:00:21.908Z,14.80
2023-04-02T01:02:36.087Z,16.50
2023-04-02T01:04:53.985Z,13.10
2023-04-02T01:07:07.003Z,23.20
2023-04-02T01:09:31.062Z,7.20
2023-04-02T01:11:56.140Z,4.30
2023-04-02T01:14:14.902Z,7.10
2023-04-02T01:16:36.922Z,4.60
2023-04-02T01:18:57.640Z,10.90
2023-04-02T01:21:34.773Z,3.90
2023-04-02T01:23:55.170Z,5.80
2023-04-02T01:26:15.220Z,12.70
2023-04-02T01:28:30.339Z,12.20
2023-04-02T01:30:42.200Z,6.90
2023-04-02T01:32:52.583Z,9.20
2023-04-02T01:35:03.163Z,14.00
2023-04-02T01:37:32.895Z,13.40
2023-04-02T01:39:56.288Z,13.60
2023-04-02T01:42:19.865Z,10.20
2023-04-02T01:44:37.951Z,9.00
2023-04-02T01:46:54.099Z,13.30
2023-04-02T01:49:13.849Z,15.40
2023-04-02T01:51:32.437Z,7.60
2023-04-02T01:53:47.239Z,15.80
2023-04-02T01:56:05.611Z,15.60
2023-04-02T01:58:21.277Z,16.70
2023-04-02T02:00:34.984Z,28.70
2023-04-02T02:02:52.484Z,27.60
2023-04-02T02:05:05.206Z,14.60
2023-04-02T02:07:24.145Z,11.00
2023-04-02T02:09:46.365Z,18.00
2023-04-02T02:12:08.368Z,14.50
2023-04-02T02:14:48.236Z,20.70
2023-04-02T02:17:01.009Z,13.70
2023-04-02T02:19:30.324Z,15.20
2023-04-02T02:21:48.046Z,18.40
2023-04-02T02:24:19.450Z,16.40
2023-04-02T02:26:31.940Z,6.50
2023-04-02T02:28:48.422Z,11.60
2023-04-02T02:31:04.453Z,6.60
2023-04-02T02:33:22.742Z,14.60
2023-04-02T02:35:40.342Z,11.30
2023-04-02T02:37:57.632Z,20.00
2023-04-02T02:40:14.801Z,27.80
2023-04-02T02:42:30.691Z,13.90
2023-04-02T02:44:47.627Z,15.70
2023-04-02T02:47:02.768Z,9.90
2023-04-02T02:49:18.709Z,8.50
2023-04-02T02:51:32.769Z,9.40
2023-04-02T02:53:52.229Z,8.40
2023-04-02T02:56:04.608Z,15.20
2023-04-02T02:58:24.087Z,7.50
2023-04-02T03:00:44.449Z,7.70
2023-04-02T03:02:57.454Z,3.60
2023-04-02T03:05:11.537Z,11.70
2023-04-02T03:07:26.183Z,6.00
2023-04-02T03:09:47.895Z,2.60
2023-04-02T03:12:04.730Z,2.10
2023-04-02T03:14:24.913Z,4.60
2023-04-02T03:16:41.793Z,7.30
2023-04-02T03:18:56.650Z,8.50
2023-04-02T03:21:14.668Z,4.20
2023-04-02T03:23:29.496Z,5.00
2023-04-02T03:25:46.964Z,8.10
2023-04-02T03:28:04.135Z,13.60
2023-04-02T03:30:29.428Z,25.70
2023-04-02T03:32:44.406Z,47.00
2023-04-02T03:34:57.681Z,31.80
2023-04-02T03:37:16.529Z,19.20
2023-04-02T03:39:33.749Z,34.70
2023-04-02T03:41:46.877Z,23.30
2023-04-02T03:44:03.520Z,26.30
2023-04-02T03:48:33.441Z,35.00
2023-04-02T03:50:50.150Z,43.30
2023-04-02T03:53:01.433Z,17.00
2023-04-02T03:55:18.496Z,29.70
2023-04-02T03:57:33.562Z,36.50
2023-04-02T03:59:52.208Z,30.40
2023-04-02T04:02:10.082Z,20.10
2023-04-02T04:04:22.301Z,17.40
2023-04-02T04:06:34.653Z,31.90
2023-04-02T04:10:59.601Z,27.20
2023-04-02T04:15:27.377Z,21.90
2023-04-02T04:17:50.425Z,16.20
2023-04-02T04:20:08.835Z,13.60
2023-04-02T04:22:33.399Z,10.80
2023-04-02T04:24:53.768Z,18.10
2023-04-02T04:27:10.539Z,32.90
2023-04-02T04:29:41.455Z,23.40
2023-04-02T04:31:55.987Z,22.20
2023-04-02T04:34:16.934Z,30.70
2023-04-02T04:36:31.044Z,33.00
2023-04-02T04:39:00.125Z,27.50
2023-04-02T04:41:18.500Z,20.20
2023-04-02T04:43:40.119Z,11.60
2023-04-02T04:45:55.186Z,12.10
2023-04-02T04:48:11.651Z,20.80
2023-04-02T04:50:31.741Z,16.10
2023-04-02T04:52:44.874Z,15.50
2023-04-02T04:54:56.964Z,18.80
2023-04-02T04:57:22.699Z,14.90
2023-04-02T04:59:37.097Z,21.50
2023-04-02T05:01:52.596Z,33.40
2023-04-02T05:04:11.691Z,29.80
2023-04-02T05:06:36.558Z,26.00
2023-04-02T05:08:51.294Z,30.80
2023-04-02T05:11:04.528Z,35.90
2023-04-02T05:13:22.957Z,39.40
2023-04-02T05:15:36.812Z,36.10
2023-04-02T05:17:54.183Z,20.90
2023-04-02T05:20:10.315Z,25.30
2023-04-02T05:22:29.684Z,38.90
2023-04-02T05:24:49.932Z,30.80
2023-04-02T05:27:03.035Z,61.60
2023-04-02T05:29:21.347Z,95.90
2023-04-02T05:31:40.154Z,67.30
2023-04-02T05:33:52.148Z,59.50
2023-04-02T05:36:06.465Z,50.10
2023-04-02T05:38:25.798Z,69.40
2023-04-02T05:40:39.699Z,46.20
2023-04-02T05:42:56.143Z,76.60
2023-04-02T05:45:20.263Z,45.20
2023-04-02T05:47:33.683Z,29.50
2023-04-02T05:49:51.391Z,33.10
2023-04-02T05:52:06.361Z,55.50
2023-04-02T05:54:26.599Z,60.40
2023-04-02T05:56:43.753Z,36.90
2023-04-02T05:58:59.156Z,117.50
2023-04-02T06:01:28.820Z,51.80
2023-04-02T06:03:49.884Z,90.60
2023-04-02T06:06:08.690Z,99.30
2023-04-02T06:08:24.377Z,120.50
2023-04-02T06:10:39.521Z,85.70
2023-04-02T06:12:54.104Z,138.80
2023-04-02T06:15:04.140Z,77.10
2023-04-02T06:17:17.813Z,57.70
2023-04-02T06:19:33.364Z,34.30
2023-04-02T06:21:50.871Z,102.40
2023-04-02T06:24:07.472Z,76.00
2023-04-02T06:26:24.799Z,45.90
2023-04-02T06:28:42.820Z,27.20
2023-04-02T06:30:55.176Z,23.40
2023-04-02T06:33:05.490Z,25.80
2023-04-02T06:35:19.454Z,47.70
2023-04-02T06:37:41.122Z,48.20
2023-04-02T06:39:56.807Z,49.40
2023-04-02T06:42:13.954Z,48.90
2023-04-02T06:44:42.853Z,26.40
2023-04-02T06:47:21.245Z,37.00
2023-04-02T06:49:41.281Z,22.30
2023-04-02T06:51:55.806Z,18.90
2023-04-02T06:54:06.146Z,25.70
2023-04-02T06:56:28.559Z,18.20
2023-04-02T06:58:38.402Z,16.70
2023-04-02T07:00:50.133Z,21.90
2023-04-02T07:03:10.770Z,23.40
2023-04-02T07:05:21.279Z,25.10
2023-04-02T07:07:31.189Z,17.30
2023-04-02T07:09:42.870Z,17.00
2023-04-02T07:11:53.746Z,26.70
2023-04-02T07:14:03.943Z,22.80
2023-04-02T07:16:18.983Z,16.80
2023-04-02T07:18:31.500Z,19.00
2023-04-02T07:20:43.513Z,22.40
2023-04-02T07:22:56.716Z,17.50
2023-04-02T07:25:06.983Z,21.10
2023-04-02T07:27:17.275Z,18.00
2023-04-02T07:29:27.187Z,14.90
2023-04-02T07:31:36.909Z,16.80
2023-04-02T07:33:47.268Z,11.10
2023-04-02T07:35:59.106Z,8.90
2023-04-02T07:38:08.846Z,5.80
2023-04-02T07:40:24.718Z,16.10
2023-04-02T07:42:34.419Z,14.10
2023-04-02T07:44:44.597Z,7.40
2023-04-02T07:46:54.506Z,7.10
2023-04-02T07:49:04.496Z,4.40
2023-04-02T07:51:22.219Z,13.40
2023-04-02T07:53:34.977Z,5.10
2023-04-02T07:55:44.989Z,4.80
2023-04-02T07:57:56.575Z,5.40
2023-04-02T08:00:08.880Z,8.00
2023-04-02T08:02:25.774Z,60.00
2023-04-02T08:04:35.901Z,69.20
2023-04-02T08:06:46.167Z,51.50
2023-04-02T08:08:56.597Z,26.70
2023-04-02T08:11:07.136Z,29.50
2023-04-02T08:13:16.600Z,30.20
2023-04-02T08:15:26.839Z,37.90
2023-04-02T08:17:37.006Z,32.70
2023-04-02T08:19:54.626Z,17.80
2023-04-02T08:22:05.029Z,76.50
2023-04-02T08:24:14.971Z,24.30
2023-04-02T08:26:24.606Z,29.70
2023-04-02T08:28:34.730Z,45.40
2023-04-02T08:30:45.445Z,78.90
2023-04-02T08:32:55.098Z,60.20
2023-04-02T08:35:05.315Z,31.20
2023-04-02T08:37:16.186Z,62.00
2023-04-02T08:39:29.875Z,34.40
2023-04-02T08:41:46.522Z,82.60
2023-04-02T08:44:13.370Z,21.10
2023-04-02T08:46:28.450Z,22.70
2023-04-02T08:48:42.743Z,20.20
2023-04-02T08:50:53.670Z,14.20
2023-04-02T08:53:04.934Z,17.70
2023-04-02T08:55:33.255Z,7.40
2023-04-02T08:57:49.580Z,8.40
2023-04-02T09:00:11.119Z,12.40
2023-04-02T09:02:33.627Z,9.00
2023-04-02T09:04:44.263Z,9.30
2023-04-02T09:06:57.123Z,9.80
2023-04-02T09:09:07.452Z,9.70
2023-04-02T09:11:26.453Z,14.40
2023-04-02T09:13:39.398Z,19.50
2023-04-02T09:18:02.691Z,19.90
2023-04-02T09:20:19.741Z,13.60
2023-04-02T09:22:32.117Z,32.40
2023-04-02T09:24:41.876Z,27.20
2023-04-02T09:26:51.700Z,31.10
2023-04-02T09:29:21.994Z,33.20
2023-04-02T09:31:38.056Z,27.00
2023-04-02T09:33:49.770Z,35.50
2023-04-02T09:36:01.187Z,21.60
2023-04-02T09:38:22.718Z,31.70
2023-04-02T09:40:44.290Z,26.60
2023-04-02T09:43:07.666Z,22.80
2023-04-02T09:47:29.895Z,24.70
2023-04-02T09:49:41.794Z,30.10
2023-04-02T09:52:11.318Z,34.10
2023-04-02T09:54:23.141Z,31.30
2023-04-02T09:56:33.729Z,27.30
2023-04-02T09:58:45.866Z,26.10
2023-04-02T10:00:56.758Z,42.20
2023-04-02T10:03:18.323Z,34.40
2023-04-02T10:05:39.953Z,27.50
2023-04-02T10:07:53.662Z,22.80
2023-04-02T10:10:07.175Z,32.90
2023-04-02T10:12:18.000Z,30.40
2023-04-02T10:14:31.509Z,21.40
2023-04-02T10:16:46.112Z,12.30
2023-04-02T10:18:59.402Z,10.70
2023-04-02T10:21:11.988Z,22.50
2023-04-02T10:23:24.569Z,27.80
2023-04-02T10:25:38.899Z,27.80
2023-04-02T10:27:55.549Z,15.40
2023-04-02T10:30:17.751Z,8.80
2023-04-02T10:32:32.900Z,15.40
2023-04-02T10:34:52.583Z,12.60
2023-04-02T10:37:11.682Z,14.60
2023-04-02T10:39:27.812Z,21.60
2023-04-02T10:41:44.463Z,7.40
2023-04-02T10:44:21.988Z,10.40
2023-04-02T10:46:38.692Z,19.70
2023-04-02T10:48:59.283Z,9.70
2023-04-02T10:51:16.124Z,9.20
2023-04-02T10:53:35.382Z,19.70
2023-04-02T10:55:50.512Z,17.30
2023-04-02T10:58:03.333Z,10.80
2023-04-02T11:00:22.903Z,20.30
2023-04-02T11:02:41.616Z,9.30
2023-04-02T11:04:54.852Z,8.40
2023-04-02T11:07:14.372Z,7.20
2023-04-02T11:09:28.401Z,3.90
2023-04-02T11:11:42.183Z,11.20
2023-04-02T11:13:58.425Z,4.10
2023-04-02T11:16:09.578Z,3.90
2023-04-02T11:18:36.294Z,5.10
2023-04-02T11:21:02.905Z,4.10
2023-04-02T11:23:19.197Z,2.90
2023-04-02T11:25:29.374Z,3.50
2023-04-02T11:27:39.834Z,1.60
2023-04-02T11:29:51.931Z,10.20
2023-04-02T11:32:31.203Z,20.10
2023-04-02T11:35:27.460Z,12.10
2023-04-02T11:37:41.583Z,17.20
2023-04-02T11:39:57.157Z,22.10
2023-04-02T11:42:23.973Z,11.50
2023-04-02T11:44:34.693Z,8.20
2023-04-02T11:46:51.252Z,20.70
2023-04-02T11:49:41.633Z,10.90
2023-04-02T11:52:09.120Z,11.40
2023-04-02T11:54:30.321Z,16.90
2023-04-02T11:56:46.751Z,11.40
2023-04-02T11:59:09.971Z,20.30
2023-04-02T12:01:56.257Z,25.60
2023-04-02T12:04:48.063Z,16.60
2023-04-02T12:07:18.356Z,10.30
2023-04-02T12:09:30.702Z,17.30
2023-04-02T12:11:42.491Z,20.40
2023-04-02T12:13:58.962Z,14.60
2023-04-02T12:16:11.077Z,10.60
2023-04-02T12:18:23.678Z,6.90
2023-04-02T12:20:35.113Z,8.90
2023-04-02T12:22:51.236Z,3.80
2023-04-02T12:25:04.893Z,12.10
2023-04-02T12:27:22.978Z,28.40
2023-04-02T12:29:33.882Z,8.60
2023-04-02T12:31:48.148Z,18.90
2023-04-02T12:33:58.078Z,35.20
2023-04-02T12:36:10.482Z,25.40
2023-04-02T12:38:28.307Z,10.00
2023-04-02T12:40:38.184Z,12.40
2023-04-02T12:42:48.432Z,5.50
2023-04-02T12:44:59.087Z,17.00
2023-04-02T12:47:09.645Z,7.30
2023-04-02T12:49:29.781Z,8.40
2023-04-02T12:51:40.187Z,12.30
2023-04-02T12:53:54.537Z,5.70
2023-04-02T12:56:04.988Z,11.30
2023-04-02T12:58:32.617Z,7.00
2023-04-02T13:00:43.693Z,7.40
2023-04-02T13:03:01.652Z,7.80
2023-04-02T13:05:13.348Z,8.10
2023-04-02T13:07:25.882Z,9.00
2023-04-02T13:11:47.461Z,6.80
2023-04-02T13:14:03.128Z,6.40
2023-04-02T13:16:30.784Z,7.80
2023-04-02T13:18:42.070Z,6.40
2023-04-02T13:21:01.022Z,5.80
2023-04-02T13:23:33.039Z,5.40
2023-04-02T13:25:43.923Z,6.60
2023-04-02T13:27:54.317Z,6.20
2023-04-02T13:30:22.356Z,3.20
2023-04-02T13:32:32.525Z,4.10
2023-04-02T13:34:42.586Z,2.70
2023-04-02T13:36:52.562Z,4.20
2023-04-02T13:39:02.555Z,6.60
2023-04-02T13:41:21.561Z,1.80
2023-04-02T13:43:31.501Z,2.20
2023-04-02T13:45:43.937Z,5.30
2023-04-02T13:47:54.189Z,3.00
2023-04-02T13:50:03.979Z,3.20
2023-04-02T13:52:19.011Z,0.90
2023-04-02T13:54:35.156Z,1.60
2023-04-02T13:56:44.896Z,1.90
2023-04-02T13:58:54.932Z,4.40
2023-04-02T14:01:05.410Z,8.10
2023-04-02T14:03:20.314Z,12.70
2023-04-02T14:05:39.681Z,16.20
2023-04-02T14:07:59.262Z,8.90
2023-04-02T14:10:22.145Z,14.10
2023-04-02T14:12:53.904Z,4.50
2023-04-02T14:15:22.390Z,14.00
2023-04-02T14:17:48.283Z,13.60
2023-04-02T14:20:14.233Z,14.00
2023-04-02T14:22:39.121Z,2.80
2023-04-02T14:24:59.194Z,2.00
2023-04-02T14:27:24.763Z,4.60
2023-04-02T14:29:40.218Z,7.40
2023-04-02T14:31:57.705Z,6.30
2023-04-02T14:34:18.801Z,4.20
2023-04-02T14:36:37.321Z,6.00
2023-04-02T14:38:57.511Z,4.70
2023-04-02T14:41:13.342Z,4.90
2023-04-02T14:43:28.156Z,3.30
2023-04-02T14:45:50.772Z,8.50
2023-04-02T14:48:07.828Z,21.00
2023-04-02T14:50:21.928Z,10.50
2023-04-02T14:52:35.337Z,15.30
2023-04-02T14:54:52.459Z,9.60
2023-04-02T14:57:07.278Z,10.60
2023-04-02T14:59:29.421Z,15.90
2023-04-02T15:01:43.871Z,9.20
2023-04-02T15:04:00.293Z,8.80
2023-04-02T15:06:14.057Z,15.60
2023-04-02T15:08:28.151Z,8.20
2023-04-02T15:10:43.538Z,14.20
2023-04-02T15:12:56.161Z,14.30
2023-04-02T15:15:17.956Z,11.70
2023-04-02T15:17:31.501Z,12.00
2023-04-02T15:19:41.513Z,5.80
2023-04-02T15:22:21.083Z,7.30
2023-04-02T15:24:39.448Z,10.70
2023-04-02T15:26:59.820Z,9.10
2023-04-02T15:29:28.791Z,4.60
2023-04-02T15:31:47.936Z,4.40
2023-04-02T15:34:08.573Z,15.40
2023-04-02T15:36:43.990Z,8.00
2023-04-02T15:39:02.922Z,8.60
2023-04-02T15:41:23.808Z,11.60
2023-04-02T15:43:41.478Z,14.50
2023-04-02T15:46:00.185Z,12.80
2023-04-02T15:48:40.670Z,13.00
2023-04-02T15:51:00.852Z,10.20
2023-04-02T15:53:22.750Z,5.70
2023-04-02T15:55:41.599Z,7.60
2023-04-02T15:58:07.651Z,4.30
2023-04-02T16:00:33.818Z,4.00
2023-04-02T16:03:19.250Z,2.30
2023-04-02T16:05:40.296Z,13.70
2023-04-02T16:08:02.703Z,3.50
2023-04-02T16:10:33.944Z,7.50
2023-04-02T16:12:52.411Z,4.80
2023-04-02T16:15:13.261Z,6.30
2023-04-02T16:17:33.011Z,5.50
2023-04-02T16:19:50.544Z,6.00
2023-04-02T16:22:07.298Z,4.90
2023-04-02T16:24:17.266Z,2.90
2023-04-02T16:26:40.630Z,1.70
2023-04-02T16:29:03.326Z,1.90
2023-04-02T16:31:19.300Z,0.60
2023-04-02T16:33:38.835Z,4.00
2023-04-02T16:35:57.533Z,1.00
2023-04-02T16:38:17.430Z,2.70
2023-04-02T16:40:38.981Z,4.20
2023-04-02T16:42:57.026Z,2.90
2023-04-02T16:45:26.638Z,3.20
2023-04-02T16:47:55.760Z,3.30
2023-04-02T16:50:14.767Z,2.00
2023-04-02T16:52:36.301Z,2.30
2023-04-02T16:54:51.852Z,1.30
2023-04-02T16:57:17.511Z,1.60
2023-04-02T16:59:36.272Z,3.60
2023-04-02T17:01:55.237Z,3.00
2023-04-02T17:04:28.462Z,2.30
2023-04-02T17:06:45.509Z,3.20
2023-04-02T17:09:02.380Z,11.70
2023-04-02T17:11:18.362Z,10.50
2023-04-02T17:13:36.734Z,6.20
2023-04-02T17:15:52.830Z,21.20
2023-04-02T17:18:03.992Z,11.90
2023-04-02T17:20:20.382Z,6.00
2023-04-02T17:22:33.753Z,11.00
2023-04-02T17:24:49.885Z,12.20
2023-04-02T17:27:05.867Z,3.30
2023-04-02T17:29:21.569Z,7.60
2023-04-02T17:31:36.349Z,4.80
2023-04-02T17:33:46.292Z,5.80
2023-04-02T17:36:07.163Z,6.40
2023-04-02T17:38:24.611Z,4.10
2023-04-02T17:40:41.241Z,3.50
2023-04-02T17:43:01.577Z,3.10
2023-04-02T17:45:21.474Z,0.90
2023-04-02T17:47:38.336Z,1.30
2023-04-02T17:49:57.478Z,1.30
2023-04-02T17:52:16.350Z,1.90
2023-04-02T17:54:43.167Z,1.30
2023-04-02T17:57:14.999Z,1.30
2023-04-02T17:59:38.191Z,3.50
2023-04-02T18:01:52.972Z,1.00
2023-04-02T18:04:20.975Z,1.90
2023-04-02T18:06:39.621Z,0.70
2023-04-02T18:09:04.727Z,0.50
2023-04-02T18:11:24.094Z,0.50
2023-04-02T18:13:38.440Z,0.50
2023-04-02T18:15:58.106Z,0.50
2023-04-02T18:18:17.370Z,1.50
2023-04-02T18:20:35.535Z,2.70
2023-04-02T18:22:52.394Z,3.10
2023-04-02T18:25:32.796Z,3.20
2023-04-02T18:27:58.287Z,0.80
2023-04-02T18:30:17.821Z,6.00
2023-04-02T18:32:41.832Z,4.50
2023-04-02T18:35:04.739Z,3.60
2023-04-02T18:37:25.552Z,7.60
2023-04-02T18:39:45.237Z,4.00
2023-04-02T18:42:02.348Z,11.20
2023-04-02T18:44:29.232Z,1.30
2023-04-02T18:46:47.640Z,3.30
2023-04-02T18:49:01.384Z,2.70
2023-04-02T18:51:16.476Z,2.10
2023-04-02T18:53:28.464Z,2.70
2023-04-02T18:55:39.195Z,1.90
2023-04-02T18:57:51.860Z,5.80
2023-04-02T19:00:04.876Z,2.50
2023-04-02T19:02:39.177Z,3.00
2023-04-02T19:04:55.449Z,2.70
2023-04-02T19:07:13.897Z,1.80
2023-04-02T19:09:29.509Z,3.20
2023-04-02T19:11:39.605Z,3.10
2023-04-02T19:13:51.801Z,6.40
2023-04-02T19:16:17.470Z,7.50
2023-04-02T19:18:40.470Z,6.80
2023-04-02T19:20:55.488Z,11.50
2023-04-02T19:23:20.282Z,12.90
2023-04-02T19:25:46.999Z,15.50
2023-04-02T19:28:11.141Z,8.90
2023-04-02T19:30:39.678Z,5.80
2023-04-02T19:32:59.464Z,24.20
2023-04-02T19:35:19.170Z,12.70
2023-04-02T19:37:37.835Z,4.70
2023-04-02T19:40:09.140Z,4.00
2023-04-02T19:42:28.038Z,11.50
2023-04-02T19:44:39.828Z,9.10
2023-04-02T19:46:51.856Z,12.50
2023-04-02T19:51:13.894Z,8.00
2023-04-02T19:53:24.430Z,68.60
2023-04-02T19:55:36.490Z,40.20
2023-04-02T19:57:46.610Z,18.70
2023-04-02T19:59:57.112Z,11.80
2023-04-02T20:02:10.762Z,24.20
2023-04-02T20:04:21.810Z,19.30
2023-04-02T20:06:32.101Z,9.20
2023-04-02T20:08:42.439Z,8.80
2023-04-02T20:10:52.355Z,143.10
2023-04-02T20:13:01.953Z,81.60
2023-04-02T20:15:13.821Z,22.10
2023-04-02T20:17:24.255Z,10.60
2023-04-02T20:19:34.214Z,12.20
2023-04-02T20:21:44.023Z,12.30
2023-04-02T20:23:56.916Z,9.60
2023-04-02T20:26:07.641Z,13.10
2023-04-02T20:28:17.365Z,7.80
2023-04-02T20:30:30.103Z,7.80
2023-04-02T20:32:41.032Z,17.40
2023-04-02T20:34:51.100Z,11.60
2023-04-02T20:37:00.936Z,5.50
2023-04-02T20:39:12.414Z,16.10
2023-04-02T20:41:23.796Z,8.40
2023-04-02T20:43:33.894Z,7.30
2023-04-02T20:45:43.996Z,9.20
2023-04-02T20:47:54.005Z,9.50
2023-04-02T20:50:04.576Z,13.00
2023-04-02T20:52:14.297Z,13.00
2023-04-02T20:54:24.515Z,8.70
2023-04-02T20:56:35.166Z,9.10
2023-04-02T20:58:45.830Z,8.50
2023-04-02T21:00:55.417Z,12.20
2023-04-02T21:03:06.011Z,10.60
2023-04-02T21:05:16.299Z,8.20
2023-04-02T21:07:26.637Z,9.60
2023-04-02T21:09:36.426Z,11.10
2023-04-02T21:11:46.869Z,8.50
2023-04-02T21:13:56.978Z,7.60
2023-04-02T21:16:13.367Z,12.80
2023-04-02T21:18:23.532Z,11.40
2023-04-02T21:20:33.833Z,4.90
2023-04-02T21:22:43.616Z,8.70
2023-04-02T21:24:53.522Z,12.70
2023-04-02T21:27:03.011Z,13.40
2023-04-02T21:29:15.080Z,10.30
2023-04-02T21:31:26.395Z,6.20
2023-04-02T21:33:40.279Z,7.50
2023-04-02T21:35:51.034Z,10.80
2023-04-02T21:38:00.809Z,12.20
2023-04-02T21:40:12.717Z,5.90
2023-04-02T21:42:22.837Z,9.50
2023-04-02T21:44:32.681Z,4.30
2023-04-02T21:46:43.626Z,6.70
2023-04-02T21:48:54.988Z,9.30
2023-04-02T21:51:11.648Z,5.80
2023-04-02T21:53:21.367Z,7.30
2023-04-02T21:55:30.831Z,11.90
2023-04-02T21:57:41.454Z,11.60
2023-04-02T21:59:51.329Z,6.70
2023-04-02T22:02:01.834Z,9.80
2023-04-02T22:04:14.533Z,11.30
2023-04-02T22:06:25.474Z,9.80
2023-04-02T22:08:35.901Z,11.80
2023-04-02T22:10:46.320Z,12.80
2023-04-02T22:12:56.171Z,8.30
2023-04-02T22:15:06.049Z,9.60
2023-04-02T22:17:18.361Z,6.10
2023-04-02T22:19:28.754Z,16.10
2023-04-02T22:21:39.622Z,2.50
2023-04-02T22:23:51.905Z,6.90
2023-04-02T22:26:03.719Z,6.40
2023-04-02T22:28:14.133Z,3.80
2023-04-02T22:30:27.198Z,5.50
2023-04-02T22:32:37.226Z,5.60
2023-04-02T22:34:47.259Z,6.80
2023-04-02T22:36:58.138Z,6.70
2023-04-02T22:39:11.088Z,3.40
2023-04-02T22:41:22.678Z,2.70
2023-04-02T22:43:33.190Z,7.70
2023-04-02T22:45:46.311Z,8.80
2023-04-02T22:47:56.093Z,7.90
2023-04-02T22:50:06.396Z,11.90
2023-04-02T22:52:16.434Z,14.60
2023-04-02T22:54:26.336Z,8.50
2023-04-02T22:56:38.065Z,9.60
2023-04-02T22:58:48.015Z,10.40
2023-04-02T23:00:57.647Z,8.70
2023-04-02T23:03:07.879Z,10.20
2023-04-02T23:05:17.720Z,5.50
2023-04-02T23:07:27.760Z,5.20
2023-04-02T23:09:37.551Z,6.30
2023-04-02T23:11:47.585Z,8.50
2023-04-02T23:14:00.040Z,8.00
2023-04-02T23:18:20.106Z,9.60
2023-04-02T23:20:30.432Z,5.10
2023-04-02T23:22:41.631Z,6.80
2023-04-02T23:24:54.982Z,8.50
2023-04-02T23:27:04.701Z,8.40
2023-04-02T23:29:14.660Z,9.20
2023-04-02T23:31:25.843Z,8.80
2023-04-02T23:33:36.519Z,5.00
2023-04-02T23:35:46.778Z,14.40
2023-04-02T23:37:57.523Z,10.80
2023-04-02T23:40:09.302Z,6.60
2023-04-02T23:42:19.211Z,10.60
2023-04-02T23:44:29.147Z,6.10
2023-04-02T23:46:40.358Z,4.00
2023-04-02T23:48:51.014Z,2.30
2023-04-02T23:51:01.144Z,4.10
2023-04-02T23:53:11.660Z,10.70
2023-04-02T23:55:22.259Z,4.10
2023-04-02T23:57:32.294Z,8.40
2023-04-02T23:59:42.150Z,8.30
